createdAt,value
2023-03-26T00:00:20.014Z,23.73
2023-03-26T00:02:25.061Z,16.63
2023-03-26T00:04:33.946Z,14.63
2023-03-26T00:06:41.943Z,15.00
2023-03-26T00:08:50.280Z,13.55
2023-03-26T00:10:55.243Z,21.33
2023-03-26T00:13:00.102Z,22.98
2023-03-26T00:15:04.907Z,31.38
2023-03-26T00:17:10.386Z,20.30
2023-03-26T00:19:15.699Z,27.17
2023-03-26T00:21:26.401Z,22.35
2023-03-26T00:23:37.875Z,24.83
2023-03-26T00:25:43.694Z,26.83
2023-03-26T00:27:49.786Z,24.73
2023-03-26T00:29:56.491Z,27.92
2023-03-26T00:32:01.221Z,32.17
2023-03-26T00:34:06.034Z,25.60
2023-03-26T00:36:14.907Z,35.63
2023-03-26T00:38:22.596Z,22.20
2023-03-26T00:40:27.398Z,32.63
2023-03-26T00:42:32.816Z,26.60
2023-03-26T00:44:37.575Z,25.08
2023-03-26T00:46:42.888Z,38.25
2023-03-26T00:48:48.370Z,26.10
2023-03-26T00:50:53.704Z,29.52
2023-03-26T00:52:59.072Z,33.55
2023-03-26T00:55:06.605Z,25.45
2023-03-26T00:57:20.211Z,22.20
2023-03-26T00:59:32.142Z,35.45
2023-03-26T01:01:36.869Z,24.80
2023-03-26T01:03:53.198Z,23.48
2023-03-26T01:06:11.185Z,31.95
2023-03-26T01:08:22.872Z,31.17
2023-03-26T01:10:38.833Z,34.53
2023-03-26T01:12:44.306Z,36.85
2023-03-26T01:14:51.187Z,30.88
2023-03-26T01:16:58.182Z,29.45
2023-03-26T01:19:03.165Z,30.13
2023-03-26T01:21:09.934Z,24.13
2023-03-26T01:23:15.964Z,33.97
2023-03-26T01:25:26.184Z,23.70
2023-03-26T01:27:43.164Z,37.33
2023-03-26T01:29:54.312Z,27.05
2023-03-26T01:32:10.073Z,25.38
2023-03-26T01:34:24.961Z,24.25
2023-03-26T01:36:38.857Z,28.88
2023-03-26T01:38:48.940Z,37.15
2023-03-26T01:41:02.750Z,35.13
2023-03-26T01:43:14.504Z,31.80
2023-03-26T01:45:23.986Z,21.25
2023-03-26T01:47:29.266Z,25.58
2023-03-26T01:49:34.766Z,23.35
2023-03-26T01:51:39.744Z,35.38
2023-03-26T01:53:46.939Z,36.95
2023-03-26T01:56:04.548Z,33.55
2023-03-26T01:58:16.263Z,27.00
2023-03-26T02:00:26.163Z,31.98
2023-03-26T02:02:38.991Z,35.85
2023-03-26T02:04:53.581Z,23.15
2023-03-26T02:07:05.918Z,24.45
2023-03-26T02:09:18.542Z,29.00
2023-03-26T02:11:34.765Z,44.90
2023-03-26T02:13:41.090Z,29.50
2023-03-26T02:15:58.278Z,29.80
2023-03-26T02:18:04.258Z,29.38
2023-03-26T02:20:12.096Z,35.45
2023-03-26T02:22:18.047Z,32.00
2023-03-26T02:24:23.565Z,39.50
2023-03-26T02:26:34.048Z,30.77
2023-03-26T02:28:41.831Z,31.52
2023-03-26T02:30:47.673Z,38.25
2023-03-26T02:32:52.550Z,41.17
2023-03-26T02:34:57.437Z,35.65
2023-03-26T02:37:02.962Z,32.40
2023-03-26T02:39:07.662Z,34.28
2023-03-26T02:41:12.513Z,29.23
2023-03-26T02:43:19.826Z,28.00
2023-03-26T02:45:24.544Z,25.08
2023-03-26T02:47:29.331Z,24.77
2023-03-26T02:49:34.472Z,29.73
2023-03-26T02:51:39.510Z,28.17
2023-03-26T02:53:44.674Z,35.92
2023-03-26T02:55:49.436Z,28.42
2023-03-26T02:57:54.185Z,24.42
2023-03-26T03:00:02.790Z,35.33
2023-03-26T03:02:07.717Z,40.67
2023-03-26T03:04:12.454Z,34.22
2023-03-26T03:06:19.082Z,33.28
2023-03-26T03:08:26.513Z,44.80
2023-03-26T03:10:34.562Z,32.75
2023-03-26T03:12:39.752Z,39.30
2023-03-26T03:14:46.946Z,33.13
2023-03-26T03:16:54.356Z,25.67
2023-03-26T03:19:03.770Z,23.20
2023-03-26T03:21:09.884Z,25.83
2023-03-26T03:23:14.754Z,23.85
2023-03-26T03:25:22.391Z,23.33
2023-03-26T03:27:28.577Z,22.98
2023-03-26T03:29:35.618Z,30.77
2023-03-26T03:31:41.459Z,23.02
2023-03-26T03:33:51.486Z,37.33
2023-03-26T03:35:56.501Z,21.23
2023-03-26T03:38:02.026Z,20.65
2023-03-26T03:40:08.867Z,22.23
2023-03-26T03:42:14.485Z,24.15
2023-03-26T03:44:19.431Z,21.30
2023-03-26T03:46:24.315Z,20.27
2023-03-26T03:48:29.412Z,25.70
2023-03-26T03:50:36.916Z,26.70
2023-03-26T03:52:41.695Z,23.05
2023-03-26T03:54:48.161Z,30.55
2023-03-26T03:56:52.917Z,29.45
2023-03-26T03:58:58.554Z,20.85
2023-03-26T04:01:04.803Z,23.05
2023-03-26T04:03:10.237Z,21.10
2023-03-26T04:05:15.995Z,20.98
2023-03-26T04:07:23.577Z,21.13
2023-03-26T04:09:28.496Z,22.05
2023-03-26T04:11:33.404Z,24.50
2023-03-26T04:13:38.173Z,20.10
2023-03-26T04:15:43.149Z,27.92
2023-03-26T04:17:48.051Z,19.35
2023-03-26T04:19:53.267Z,21.40
2023-03-26T04:22:02.485Z,20.73
2023-03-26T04:24:11.071Z,19.75
2023-03-26T04:26:20.103Z,19.55
2023-03-26T04:28:31.374Z,17.65
2023-03-26T04:30:38.502Z,24.70
2023-03-26T04:32:44.919Z,15.90
2023-03-26T04:34:50.128Z,22.98
2023-03-26T04:36:55.925Z,20.73
2023-03-26T04:39:03.897Z,16.83
2023-03-26T04:41:13.341Z,22.50
2023-03-26T04:43:19.626Z,24.35
2023-03-26T04:45:24.300Z,29.35
2023-03-26T04:47:31.796Z,21.70
2023-03-26T04:49:36.708Z,19.88
2023-03-26T04:51:45.049Z,19.55
2023-03-26T04:53:57.107Z,21.48
2023-03-26T04:56:06.355Z,21.05
2023-03-26T04:58:14.332Z,15.98
2023-03-26T05:00:20.805Z,19.48
2023-03-26T05:02:26.298Z,15.00
2023-03-26T05:04:34.219Z,22.38
2023-03-26T05:06:39.970Z,20.40
2023-03-26T05:08:44.805Z,22.50
2023-03-26T05:10:49.628Z,32.63
2023-03-26T05:12:54.608Z,18.58
2023-03-26T05:15:02.171Z,22.70
2023-03-26T05:17:10.935Z,23.05
2023-03-26T05:19:16.015Z,23.23
2023-03-26T05:21:21.108Z,19.60
2023-03-26T05:23:27.706Z,25.55
2023-03-26T05:25:32.791Z,23.67
2023-03-26T05:27:37.476Z,17.95
2023-03-26T05:29:42.201Z,22.52
2023-03-26T05:31:49.663Z,23.75
2023-03-26T05:33:55.312Z,27.90
2023-03-26T05:36:07.366Z,25.13
2023-03-26T05:38:12.123Z,22.83
2023-03-26T05:40:18.363Z,26.70
2023-03-26T05:42:23.373Z,28.90
2023-03-26T05:44:28.391Z,27.73
2023-03-26T05:46:33.126Z,28.42
2023-03-26T05:48:41.224Z,21.48
2023-03-26T05:50:46.067Z,21.30
2023-03-26T05:52:50.797Z,16.95
2023-03-26T05:54:55.715Z,24.55
2023-03-26T05:57:00.955Z,21.80
2023-03-26T05:59:05.708Z,21.38
2023-03-26T06:01:16.843Z,28.48
2023-03-26T06:03:23.424Z,23.45
2023-03-26T06:05:32.886Z,22.42
2023-03-26T06:07:37.991Z,24.38
2023-03-26T06:09:43.916Z,22.58
2023-03-26T06:11:48.949Z,20.67
2023-03-26T06:13:54.004Z,32.28
2023-03-26T06:15:58.991Z,34.50
2023-03-26T06:18:04.003Z,26.00
2023-03-26T06:20:10.478Z,24.73
2023-03-26T06:22:19.169Z,29.90
2023-03-26T06:24:24.115Z,25.60
2023-03-26T06:26:28.991Z,28.30
2023-03-26T06:28:33.920Z,25.45
2023-03-26T06:30:38.999Z,22.60
2023-03-26T06:32:46.137Z,30.30
2023-03-26T06:34:51.067Z,24.02
2023-03-26T06:36:55.926Z,27.80
2023-03-26T06:39:07.843Z,34.38
2023-03-26T06:41:12.888Z,25.63
2023-03-26T06:43:17.620Z,30.95
2023-03-26T06:45:22.378Z,28.23
2023-03-26T06:47:27.407Z,35.67
2023-03-26T06:49:32.266Z,22.95
2023-03-26T06:51:38.813Z,27.17
2023-03-26T06:53:44.036Z,25.00
2023-03-26T06:55:51.458Z,31.80
2023-03-26T06:57:58.437Z,31.20
2023-03-26T07:00:04.039Z,26.33
2023-03-26T07:02:08.809Z,28.75
2023-03-26T07:04:13.697Z,23.85
2023-03-26T07:06:20.139Z,37.78
2023-03-26T07:08:26.423Z,26.30
2023-03-26T07:10:32.091Z,23.15
2023-03-26T07:12:43.063Z,25.80
2023-03-26T07:14:48.304Z,27.73
2023-03-26T07:16:53.128Z,26.63
2023-03-26T07:18:57.909Z,21.85
2023-03-26T07:21:03.538Z,21.80
2023-03-26T07:23:09.038Z,19.17
2023-03-26T07:25:16.093Z,25.45
2023-03-26T07:27:38.958Z,31.77
2023-03-26T07:29:51.824Z,27.23
2023-03-26T07:32:03.916Z,24.83
2023-03-26T07:34:22.306Z,24.08
2023-03-26T07:36:35.350Z,28.00
2023-03-26T07:38:52.040Z,18.65
2023-03-26T07:41:06.205Z,24.55
2023-03-26T07:43:24.625Z,25.73
2023-03-26T07:45:38.220Z,17.88
2023-03-26T07:47:47.237Z,17.08
2023-03-26T07:49:56.357Z,20.17
2023-03-26T07:52:03.072Z,20.90
2023-03-26T07:54:08.909Z,21.20
2023-03-26T07:56:18.394Z,22.25
2023-03-26T07:58:42.617Z,20.85
2023-03-26T08:00:55.285Z,20.65
2023-03-26T08:03:27.653Z,18.58
2023-03-26T08:05:36.864Z,22.08
2023-03-26T08:07:53.025Z,18.95
2023-03-26T08:10:06.787Z,17.52
2023-03-26T08:12:21.442Z,16.52
2023-03-26T08:14:46.396Z,19.65
2023-03-26T08:16:58.708Z,20.02
2023-03-26T08:19:12.972Z,19.03
2023-03-26T08:21:22.555Z,21.67
2023-03-26T08:23:32.815Z,19.52
2023-03-26T08:25:42.523Z,18.30
2023-03-26T08:27:59.168Z,16.63
2023-03-26T08:30:11.630Z,19.08
2023-03-26T08:32:22.113Z,19.10
2023-03-26T08:34:26.999Z,23.73
2023-03-26T08:36:32.122Z,16.35
2023-03-26T08:38:36.932Z,22.85
2023-03-26T08:41:25.821Z,20.48
2023-03-26T08:43:54.457Z,21.95
2023-03-26T08:46:43.905Z,20.17
2023-03-26T08:49:17.712Z,19.00
2023-03-26T08:54:18.906Z,18.70
2023-03-26T08:56:30.021Z,23.40
2023-03-26T08:59:09.072Z,20.33
2023-03-26T09:01:38.881Z,16.02
2023-03-26T09:04:08.693Z,17.75
2023-03-26T09:06:30.326Z,20.40
2023-03-26T09:09:19.266Z,16.48
2023-03-26T09:11:57.268Z,18.77
2023-03-26T09:14:24.557Z,14.85
2023-03-26T09:16:47.131Z,19.45
2023-03-26T09:19:24.341Z,16.65
2023-03-26T09:22:01.849Z,13.70
2023-03-26T09:24:37.767Z,18.77
2023-03-26T09:26:51.588Z,19.92
2023-03-26T09:29:38.522Z,18.40
2023-03-26T09:32:34.076Z,17.25
2023-03-26T09:35:01.931Z,16.20
2023-03-26T09:37:21.478Z,16.35
2023-03-26T09:39:49.194Z,16.13
2023-03-26T09:42:07.288Z,19.33
2023-03-26T09:44:50.826Z,12.55
2023-03-26T09:47:25.442Z,15.18
2023-03-26T09:49:45.788Z,15.90
2023-03-26T09:52:41.548Z,19.33
2023-03-26T09:55:20.438Z,23.38
2023-03-26T09:57:37.308Z,22.30
2023-03-26T10:00:13.462Z,24.45
2023-03-26T10:02:45.949Z,17.80
2023-03-26T10:05:11.901Z,22.23
2023-03-26T10:07:39.073Z,25.77
2023-03-26T10:09:53.979Z,23.23
2023-03-26T10:12:09.724Z,24.42
2023-03-26T10:14:23.724Z,26.10
2023-03-26T10:16:37.267Z,27.52
2023-03-26T10:18:56.751Z,26.27
2023-03-26T10:21:09.141Z,26.15
2023-03-26T10:23:40.315Z,21.08
2023-03-26T10:26:07.348Z,21.77
2023-03-26T10:28:31.802Z,25.70
2023-03-26T10:31:12.841Z,25.50
2023-03-26T10:33:34.641Z,17.83
2023-03-26T10:35:56.288Z,23.90
2023-03-26T10:38:16.870Z,17.25
2023-03-26T10:40:28.693Z,17.38
2023-03-26T10:42:58.259Z,16.83
2023-03-26T10:45:31.329Z,19.30
2023-03-26T10:47:58.658Z,15.30
2023-03-26T10:50:28.347Z,15.02
2023-03-26T10:52:37.895Z,18.55
2023-03-26T10:54:54.486Z,15.63
2023-03-26T10:57:07.429Z,15.23
2023-03-26T10:59:16.407Z,12.90
2023-03-26T11:01:35.098Z,12.63
2023-03-26T11:03:52.278Z,16.25
2023-03-26T11:06:04.489Z,13.75
2023-03-26T11:08:16.669Z,12.10
2023-03-26T11:10:28.303Z,14.95
2023-03-26T11:12:46.385Z,24.67
2023-03-26T11:15:00.535Z,17.27
2023-03-26T11:17:40.366Z,17.52
2023-03-26T11:19:53.241Z,21.20
2023-03-26T11:22:04.244Z,16.83
2023-03-26T11:24:40.039Z,13.23
2023-03-26T11:26:56.046Z,19.40
2023-03-26T11:29:31.645Z,16.40
2023-03-26T11:31:55.594Z,15.88
2023-03-26T11:34:06.552Z,15.88
2023-03-26T11:36:15.714Z,22.00
2023-03-26T11:38:27.013Z,21.75
2023-03-26T11:40:37.539Z,13.65
2023-03-26T11:42:46.597Z,23.55
2023-03-26T11:44:58.170Z,12.95
2023-03-26T11:47:10.316Z,10.15
2023-03-26T11:49:19.613Z,15.50
2023-03-26T11:51:31.064Z,11.48
2023-03-26T11:53:38.933Z,13.55
2023-03-26T11:55:47.716Z,18.35
2023-03-26T11:57:58.469Z,12.80
2023-03-26T12:00:17.024Z,12.23
2023-03-26T12:02:29.698Z,15.27
2023-03-26T12:04:40.875Z,14.82
2023-03-26T12:06:56.704Z,16.02
2023-03-26T12:09:02.000Z,22.23
2023-03-26T12:11:11.841Z,15.10
2023-03-26T12:13:36.975Z,13.68
2023-03-26T12:15:53.003Z,8.57
2023-03-26T12:17:59.882Z,12.60
2023-03-26T12:20:45.231Z,11.93
2023-03-26T12:22:54.291Z,17.63
2023-03-26T12:25:18.430Z,15.77
2023-03-26T12:27:28.688Z,15.68
2023-03-26T12:29:38.253Z,15.18
2023-03-26T12:31:55.685Z,16.08
2023-03-26T12:34:10.460Z,11.23
2023-03-26T12:36:29.746Z,10.88
2023-03-26T12:38:37.524Z,10.80
2023-03-26T12:40:43.614Z,13.00
2023-03-26T12:44:54.325Z,10.88
2023-03-26T12:45:24.281Z,24.15
2023-03-26T12:48:01.143Z,11.23
2023-03-26T12:50:02.538Z,13.13
2023-03-26T12:52:20.867Z,10.40
2023-03-26T12:54:43.744Z,12.75
2023-03-26T12:57:12.452Z,14.30
2023-03-26T12:59:33.400Z,12.23
2023-03-26T13:01:50.718Z,11.57
2023-03-26T13:04:18.542Z,17.10
2023-03-26T13:06:59.392Z,9.60
2023-03-26T13:09:32.170Z,17.42
2023-03-26T13:11:50.187Z,15.10
2023-03-26T13:14:10.419Z,9.43
2023-03-26T13:16:25.448Z,6.53
2023-03-26T13:18:50.889Z,11.07
2023-03-26T13:21:06.228Z,9.57
2023-03-26T13:23:19.997Z,10.52
2023-03-26T13:25:36.730Z,11.85
2023-03-26T13:27:55.624Z,10.43
2023-03-26T13:30:09.217Z,14.77
2023-03-26T13:32:22.597Z,15.70
2023-03-26T13:34:38.363Z,8.13
2023-03-26T13:36:58.100Z,14.20
2023-03-26T13:39:32.592Z,9.30
2023-03-26T13:41:50.719Z,11.55
2023-03-26T13:44:09.004Z,8.55
2023-03-26T13:46:27.674Z,8.48
2023-03-26T13:48:39.804Z,10.77
2023-03-26T13:50:47.730Z,11.93
2023-03-26T13:52:59.115Z,12.82
2023-03-26T13:55:20.800Z,13.57
2023-03-26T13:57:32.125Z,17.25
2023-03-26T13:59:41.919Z,11.90
2023-03-26T14:01:53.683Z,10.18
2023-03-26T14:04:04.358Z,11.60
2023-03-26T14:06:15.715Z,10.95
2023-03-26T14:08:28.977Z,5.85
2023-03-26T14:10:40.302Z,8.20
2023-03-26T14:12:55.480Z,14.02
2023-03-26T14:15:04.467Z,12.10
2023-03-26T14:17:19.106Z,12.57
2023-03-26T14:19:52.688Z,7.43
2023-03-26T14:22:06.970Z,10.95
2023-03-26T14:24:37.846Z,10.00
2023-03-26T14:27:05.590Z,9.30
2023-03-26T14:29:29.729Z,5.82
2023-03-26T14:31:41.999Z,7.55
2023-03-26T14:34:25.116Z,12.87
2023-03-26T14:36:49.585Z,10.88
2023-03-26T14:39:29.575Z,10.27
2023-03-26T14:41:46.099Z,9.50
2023-03-26T14:44:13.234Z,13.45
2023-03-26T14:46:30.401Z,6.15
2023-03-26T14:49:16.406Z,8.55
2023-03-26T14:51:35.396Z,8.60
2023-03-26T14:53:44.586Z,9.57
2023-03-26T14:56:21.263Z,6.38
2023-03-26T14:59:01.947Z,7.65
2023-03-26T15:01:32.132Z,8.02
2023-03-26T15:04:12.918Z,8.65
2023-03-26T15:07:10.483Z,7.78
2023-03-26T15:09:46.409Z,10.60
2023-03-26T15:12:12.535Z,9.05
2023-03-26T15:14:44.398Z,7.68
2023-03-26T15:17:29.862Z,13.00
2023-03-26T15:19:58.914Z,11.13
2023-03-26T15:22:41.015Z,9.25
2023-03-26T15:25:21.363Z,8.10
2023-03-26T15:27:50.169Z,6.82
2023-03-26T15:30:15.310Z,9.23
2023-03-26T15:32:52.957Z,8.35
2023-03-26T15:35:30.500Z,8.65
2023-03-26T15:38:14.923Z,12.18
2023-03-26T15:40:47.105Z,7.72
2023-03-26T15:43:03.425Z,7.03
2023-03-26T15:45:37.144Z,10.55
2023-03-26T15:50:21.925Z,7.90
2023-03-26T15:52:33.190Z,9.70
2023-03-26T15:54:48.518Z,6.00
2023-03-26T15:57:07.483Z,8.73
2023-03-26T15:59:26.784Z,6.18
2023-03-26T16:01:46.296Z,7.97
2023-03-26T16:04:06.160Z,9.05
2023-03-26T16:06:32.094Z,7.93
2023-03-26T16:08:47.307Z,7.30
2023-03-26T16:10:56.190Z,11.18
2023-03-26T16:13:36.961Z,8.43
2023-03-26T16:15:42.939Z,6.07
2023-03-26T16:18:22.949Z,10.73
2023-03-26T16:20:33.604Z,6.35
2023-03-26T16:22:44.007Z,9.27
2023-03-26T16:25:29.068Z,8.60
2023-03-26T16:27:37.077Z,7.00
2023-03-26T16:30:20.604Z,9.95
2023-03-26T16:32:28.975Z,14.27
2023-03-26T16:34:42.864Z,11.13
2023-03-26T16:36:51.863Z,10.65
2023-03-26T16:39:11.865Z,9.05
2023-03-26T16:41:22.221Z,11.48
2023-03-26T16:44:06.238Z,9.82
2023-03-26T16:48:28.834Z,10.35
2023-03-26T16:50:46.922Z,7.10
2023-03-26T16:53:02.257Z,5.88
2023-03-26T16:55:17.104Z,6.15
2023-03-26T16:57:28.959Z,9.15
2023-03-26T17:00:05.621Z,7.38
2023-03-26T17:02:26.824Z,11.70
2023-03-26T17:04:35.035Z,10.57
2023-03-26T17:07:01.990Z,8.20
2023-03-26T17:09:24.861Z,9.73
2023-03-26T17:11:40.291Z,11.77
2023-03-26T17:13:53.282Z,7.25
2023-03-26T17:16:07.926Z,8.20
2023-03-26T17:18:40.225Z,8.98
2023-03-26T17:20:56.076Z,10.68
2023-03-26T17:23:12.550Z,9.48
2023-03-26T17:25:34.003Z,8.95
2023-03-26T17:27:47.262Z,7.57
2023-03-26T17:30:26.267Z,13.15
2023-03-26T17:32:56.306Z,9.60
2023-03-26T17:35:07.065Z,13.02
2023-03-26T17:37:28.843Z,7.32
2023-03-26T17:40:12.459Z,7.60
2023-03-26T17:42:33.103Z,8.27
2023-03-26T17:44:48.072Z,10.27
2023-03-26T17:46:54.792Z,9.30
2023-03-26T17:49:06.102Z,7.40
2023-03-26T17:51:30.258Z,8.10
2023-03-26T17:53:43.781Z,8.10
2023-03-26T17:55:51.437Z,12.27
2023-03-26T17:58:01.314Z,5.38
2023-03-26T18:00:09.107Z,10.80
2023-03-26T18:02:18.880Z,10.00
2023-03-26T18:04:34.375Z,10.95
2023-03-26T18:06:54.228Z,7.07
2023-03-26T18:09:13.931Z,7.18
2023-03-26T18:12:00.363Z,11.32
2023-03-26T18:14:35.514Z,10.63
2023-03-26T18:16:46.813Z,11.32
2023-03-26T18:18:54.540Z,9.77
2023-03-26T18:21:03.684Z,12.55
2023-03-26T18:23:23.484Z,10.30
2023-03-26T18:25:34.346Z,8.70
2023-03-26T18:27:42.024Z,16.35
2023-03-26T18:29:48.978Z,7.18
2023-03-26T18:32:00.712Z,15.20
2023-03-26T18:34:14.995Z,21.15
2023-03-26T18:36:21.545Z,18.45
2023-03-26T18:38:35.825Z,9.18
2023-03-26T18:40:45.418Z,11.35
2023-03-26T18:42:52.827Z,10.75
2023-03-26T18:45:02.071Z,9.10
2023-03-26T18:47:13.721Z,10.20
2023-03-26T18:49:19.872Z,12.50
2023-03-26T18:51:25.533Z,15.35
2023-03-26T18:53:32.946Z,14.35
2023-03-26T18:55:40.279Z,16.17
2023-03-26T18:57:49.668Z,10.00
2023-03-26T18:59:56.847Z,10.60
2023-03-26T19:02:04.517Z,14.68
2023-03-26T19:04:17.463Z,11.30
2023-03-26T19:06:23.494Z,11.60
2023-03-26T19:08:30.607Z,8.80
2023-03-26T19:10:36.837Z,11.05
2023-03-26T19:12:41.826Z,23.27
2023-03-26T19:15:01.196Z,7.18
2023-03-26T19:17:09.031Z,10.70
2023-03-26T19:19:23.274Z,13.18
2023-03-26T19:21:28.606Z,11.98
2023-03-26T19:23:35.978Z,10.98
2023-03-26T19:25:46.335Z,13.65
2023-03-26T19:27:52.015Z,7.03
2023-03-26T19:29:57.242Z,15.18
2023-03-26T19:32:06.535Z,6.25
2023-03-26T19:34:28.094Z,7.75
2023-03-26T19:36:37.191Z,13.40
2023-03-26T19:38:47.371Z,14.65
2023-03-26T19:40:53.614Z,12.23
2023-03-26T19:43:01.644Z,10.15
2023-03-26T19:45:17.274Z,8.18
2023-03-26T19:47:35.222Z,10.48
2023-03-26T19:49:56.909Z,10.02
2023-03-26T19:52:16.475Z,6.88
2023-03-26T19:54:21.439Z,12.77
2023-03-26T19:56:27.057Z,7.43
2023-03-26T19:58:32.134Z,9.13
2023-03-26T20:00:37.040Z,8.30
2023-03-26T20:02:42.697Z,5.72
2023-03-26T20:04:47.939Z,11.35
2023-03-26T20:06:55.366Z,14.85
2023-03-26T20:09:01.285Z,10.07
2023-03-26T20:11:06.408Z,13.27
2023-03-26T20:13:17.486Z,10.57
2023-03-26T20:15:26.231Z,7.40
2023-03-26T20:17:31.280Z,5.93
2023-03-26T20:19:39.305Z,7.78
2023-03-26T20:21:47.296Z,9.40
2023-03-26T20:23:56.053Z,8.00
2023-03-26T20:26:00.906Z,6.68
2023-03-26T20:28:06.111Z,9.98
2023-03-26T20:30:14.054Z,6.63
2023-03-26T20:32:25.709Z,8.32
2023-03-26T20:34:32.253Z,6.35
2023-03-26T20:36:37.153Z,9.55
2023-03-26T20:38:44.003Z,5.50
2023-03-26T20:40:52.291Z,7.65
2023-03-26T20:42:57.042Z,8.50
2023-03-26T20:45:02.133Z,6.55
2023-03-26T20:47:07.673Z,10.93
2023-03-26T20:49:13.190Z,7.40
2023-03-26T20:51:20.095Z,5.18
2023-03-26T20:53:25.150Z,13.38
2023-03-26T20:55:30.087Z,10.52
2023-03-26T20:57:37.413Z,6.30
2023-03-26T20:59:44.775Z,4.70
2023-03-26T21:01:50.129Z,7.60
2023-03-26T21:03:54.909Z,8.50
2023-03-26T21:06:03.408Z,6.75
2023-03-26T21:08:09.028Z,5.25
2023-03-26T21:10:20.754Z,7.60
2023-03-26T21:12:39.938Z,7.63
2023-03-26T21:14:48.088Z,3.47
2023-03-26T21:16:53.795Z,9.07
2023-03-26T21:18:59.603Z,7.80
2023-03-26T21:21:28.239Z,9.18
2023-03-26T21:23:39.301Z,13.52
2023-03-26T21:25:56.723Z,4.25
2023-03-26T21:28:12.098Z,7.28
2023-03-26T21:30:20.351Z,5.43
2023-03-26T21:32:26.466Z,4.60
2023-03-26T21:34:33.584Z,5.00
2023-03-26T21:36:40.392Z,5.80
2023-03-26T21:38:46.139Z,9.73
2023-03-26T21:40:58.312Z,4.78
2023-03-26T21:43:04.193Z,2.53
2023-03-26T21:45:10.712Z,3.72
2023-03-26T21:47:21.641Z,5.78
2023-03-26T21:49:27.040Z,5.85
2023-03-26T21:51:34.243Z,2.00
2023-03-26T21:53:39.833Z,7.45
2023-03-26T21:55:54.130Z,5.43
2023-03-26T21:58:19.640Z,3.25
2023-03-26T22:00:33.602Z,4.32
2023-03-26T22:02:57.651Z,6.45
2023-03-26T22:05:07.032Z,3.67
2023-03-26T22:07:16.576Z,1.95
2023-03-26T22:09:30.078Z,7.38
2023-03-26T22:11:41.676Z,4.88
2023-03-26T22:13:46.950Z,9.00
2023-03-26T22:15:51.731Z,10.80
2023-03-26T22:18:03.435Z,5.50
2023-03-26T22:20:13.659Z,7.85
2023-03-26T22:22:18.691Z,4.03
2023-03-26T22:24:23.669Z,3.45
2023-03-26T22:26:28.612Z,4.60
2023-03-26T22:28:33.598Z,2.80
2023-03-26T22:30:38.929Z,3.45
2023-03-26T22:32:46.145Z,7.68
2023-03-26T22:34:54.014Z,6.63
2023-03-26T22:36:59.310Z,3.42
2023-03-26T22:39:04.672Z,2.95
2023-03-26T22:41:14.089Z,4.47
2023-03-26T22:43:19.152Z,8.75
2023-03-26T22:45:24.015Z,6.75
2023-03-26T22:47:30.769Z,3.50
2023-03-26T22:49:35.979Z,7.40
2023-03-26T22:51:45.983Z,5.47
2023-03-26T22:53:51.014Z,5.00
2023-03-26T22:55:55.840Z,4.20
2023-03-26T22:58:00.763Z,5.97
2023-03-26T23:00:14.978Z,6.07
2023-03-26T23:02:19.955Z,7.05
2023-03-26T23:04:32.342Z,5.45
2023-03-26T23:06:37.385Z,7.15
2023-03-26T23:08:48.231Z,5.00
2023-03-26T23:10:55.869Z,5.53
2023-03-26T23:13:01.085Z,5.05
2023-03-26T23:15:06.553Z,2.80
2023-03-26T23:17:14.787Z,3.55
2023-03-26T23:19:20.116Z,4.03
2023-03-26T23:21:25.824Z,6.60
2023-03-26T23:23:32.989Z,6.18
2023-03-26T23:25:41.021Z,5.13
2023-03-26T23:27:46.019Z,4.38
2023-03-26T23:29:50.724Z,4.32
2023-03-26T23:31:56.352Z,5.25
2023-03-26T23:34:02.558Z,7.25
2023-03-26T23:36:10.272Z,5.05
2023-03-26T23:38:16.051Z,5.40
2023-03-26T23:40:22.076Z,3.85
2023-03-26T23:42:29.993Z,4.85
2023-03-26T23:44:35.184Z,3.67
2023-03-26T23:46:43.052Z,8.13
2023-03-26T23:48:51.194Z,4.10
2023-03-26T23:51:02.832Z,3.00
2023-03-26T23:55:17.455Z,5.65
2023-03-26T23:57:22.559Z,6.30
2023-03-26T23:59:30.148Z,1.48
